Time,TemperatureF,DewpointF,PressureIn,WindDirection,WindDirectionDegrees,WindSpeedMPH,WindSpeedGustMPH,Humidity,HourlyPrecipIn,Conditions,Clouds,dailyrainin,SoftwareType,DateUTC
2013-05-02 00:06:00,75.5,69.5,29.89,SSE,147,0.0,5.0,81,0.00,,,0.00,WUHU216DAVISVP2,2013-05-02 05:06:00,
2013-05-02 00:36:00,74.5,68.8,29.91,WSW,245,1.1,4.4,82,0.00,,,0.00,WUHU216DAVISVP2,2013-05-02 05:36:00,
2013-05-02 01:06:00,73.9,68.9,29.92,SW,236,0.0,0.0,84,0.00,,,0.00,WUHU216DAVISVP2,2013-05-02 06:06:00,
2013-05-02 01:36:00,66.4,61.9,30.01,WNW,301,11.0,28.0,85,0.02,,,0.02,WUHU216DAVISVP2,2013-05-02 06:36:00,
2013-05-02 02:06:00,64.9,61.3,30.00,WNW,294,31.9,36.3,88,0.24,,,0.24,WUHU216DAVISVP2,2013-05-02 07:06:00,
2013-05-02 02:36:00,67.0,60.8,29.99,WNW,299,12.1,30.0,80,0.26,,,0.29,WUHU216DAVISVP2,2013-05-02 07:36:00,
2013-05-02 03:06:00,67.4,59.8,29.96,North,353,14.3,18.0,76,0.06,,,0.29,WUHU216DAVISVP2,2013-05-02 08:06:00,
2013-05-02 03:36:00,64.9,60.1,29.94,NNE,29,9.9,22.0,84,0.03,,,0.32,WUHU216DAVISVP2,2013-05-02 08:36:00,
2013-05-02 04:06:00,64.0,60.5,29.92,NNE,12,4.4,21.0,88,0.07,,,0.35,WUHU216DAVISVP2,2013-05-02 09:06:00,
2013-05-02 04:36:00,64.1,60.6,29.86,NNE,17,13.2,19.8,88,0.07,,,0.38,WUHU216DAVISVP2,2013-05-02 09:36:00,
2013-05-02 05:06:00,66.2,59.7,29.82,North,357,5.5,15.0,79,0.03,,,0.38,WUHU216DAVISVP2,2013-05-02 10:06:00,
2013-05-02 05:36:00,67.1,59.9,29.82,WNW,291,5.5,26.4,77,0.00,,,0.38,WUHU216DAVISVP2,2013-05-02 10:36:00,
2013-05-02 06:06:00,68.6,59.9,29.81,NNE,12,6.6,12.0,73,0.00,,,0.38,WUHU216DAVISVP2,2013-05-02 11:06:00,
2013-05-02 06:36:00,68.0,59.7,29.87,North,352,12.1,17.6,74,0.00,,,0.38,WUHU216DAVISVP2,2013-05-02 11:36:00,
2013-05-02 07:06:00,64.1,58.0,29.90,NNW,334,13.2,23.1,80,0.00,,,0.38,WUHU216DAVISVP2,2013-05-02 12:06:00,
2013-05-02 07:36:00,63.1,57.3,29.93,WNW,295,12.1,20.9,81,0.00,,,0.38,WUHU216DAVISVP2,2013-05-02 12:36:00,
2013-05-02 08:06:00,62.1,56.3,29.98,North,353,5.5,18.7,81,0.00,,,0.38,WUHU216DAVISVP2,2013-05-02 13:06:00,
2013-05-02 08:36:00,62.1,56.3,30.01,NNW,347,11.0,14.3,81,0.00,,,0.38,WUHU216DAVISVP2,2013-05-02 13:36:00,
2013-05-02 09:06:00,60.3,53.9,30.03,NNW,345,16.5,20.9,79,0.00,,,0.38,WUHU216DAVISVP2,2013-05-02 14:06:00,
2013-05-02 09:36:00,58.2,52.2,30.07,WNW,303,13.2,23.1,80,0.00,,,0.38,WUHU216DAVISVP2,2013-05-02 14:36:00,
2013-05-02 10:06:00,57.4,51.4,30.13,NNW,339,6.6,17.6,80,0.00,,,0.38,WUHU216DAVISVP2,2013-05-02 15:06:00,
2013-05-02 10:36:00,56.2,49.9,30.16,NW,315,8.8,21.0,79,0.00,,,0.38,WUHU216DAVISVP2,2013-05-02 15:36:00,
2013-05-02 11:06:00,55.0,48.4,30.17,NNW,340,7.7,22.0,78,0.00,,,0.38,WUHU216DAVISVP2,2013-05-02 16:06:00,
2013-05-02 11:36:00,54.8,47.9,30.18,North,358,15.4,22.0,77,0.00,,,0.38,WUHU216DAVISVP2,2013-05-02 16:36:00,
2013-05-02 12:06:00,53.9,46.7,30.19,NNW,346,11.0,20.9,76,0.00,,,0.38,WUHU216DAVISVP2,2013-05-02 17:06:00,
2013-05-02 12:36:00,54.8,46.9,30.19,NNW,346,16.5,22.0,74,0.00,,,0.38,WUHU216DAVISVP2,2013-05-02 17:36:00,
2013-05-02 13:06:00,58.0,48.9,30.19,NNE,16,15.4,19.0,71,0.00,,,0.38,WUHU216DAVISVP2,2013-05-02 18:06:00,
2013-05-02 13:36:00,59.4,49.5,30.19,North,351,6.6,19.8,69,0.00,,,0.38,WUHU216DAVISVP2,2013-05-02 18:36:00,
2013-05-02 14:06:00,60.9,50.5,30.18,North,7,13.2,20.9,68,0.00,,,0.38,WUHU216DAVISVP2,2013-05-02 19:06:00,
2013-05-02 14:36:00,62.8,51.6,30.18,NW,312,6.6,20.9,66,0.00,,,0.38,WUHU216DAVISVP2,2013-05-02 19:36:00,
2013-05-02 15:06:00,61.8,50.2,30.18,NW,317,12.1,26.0,65,0.00,,,0.38,WUHU216DAVISVP2,2013-05-02 20:06:00,
2013-05-02 15:36:00,61.5,50.3,30.18,NNW,342,7.7,22.0,66,0.00,,,0.38,WUHU216DAVISVP2,2013-05-02 20:36:00,
2013-05-02 16:06:00,59.4,47.9,30.18,NW,325,14.3,22.0,65,0.00,,,0.38,WUHU216DAVISVP2,2013-05-02 21:06:00,
2013-05-02 16:36:00,58.9,46.6,30.18,WNW,298,9.9,26.0,63,0.00,,,0.38,WUHU216DAVISVP2,2013-05-02 21:36:00,
2013-05-02 17:06:00,58.2,47.2,30.18,NE,52,6.6,23.1,66,0.00,,,0.38,WUHU216DAVISVP2,2013-05-02 22:06:00,
2013-05-02 17:36:00,57.3,45.9,30.19,NNW,336,15.4,27.5,65,0.00,,,0.38,WUHU216DAVISVP2,2013-05-02 22:36:00,
2013-05-02 18:06:00,55.0,44.5,30.21,NNE,18,14.3,22.0,67,0.00,,,0.38,WUHU216DAVISVP2,2013-05-02 23:06:00,
2013-05-02 18:36:00,53.8,43.7,30.22,NW,307,13.2,24.0,68,0.00,,,0.38,WUHU216DAVISVP2,2013-05-02 23:36:00,
2013-05-02 19:06:00,52.8,42.8,30.24,NNW,332,11.0,23.1,68,0.00,,,0.38,WUHU216DAVISVP2,2013-05-03 00:06:00,
2013-05-02 19:37:00,52.3,42.7,30.24,NW,318,11.0,22.0,69,0.00,,,0.38,WUHU216DAVISVP2,2013-05-03 00:37:00,
2013-05-02 20:07:00,51.9,41.9,30.25,NNE,23,6.6,24.2,68,0.00,,,0.38,WUHU216DAVISVP2,2013-05-03 01:07:00,
2013-05-02 20:37:00,51.5,40.7,30.26,NNE,16,14.3,23.1,66,0.00,,,0.38,WUHU216DAVISVP2,2013-05-03 01:37:00,
2013-05-02 21:07:00,51.1,40.0,30.27,North,7,9.9,23.1,65,0.00,,,0.38,WUHU216DAVISVP2,2013-05-03 02:07:00,
2013-05-02 21:37:00,51.0,39.5,30.29,NW,324,14.3,27.5,64,0.00,,,0.38,WUHU216DAVISVP2,2013-05-03 02:37:00,
2013-05-02 22:07:00,51.1,39.6,30.31,NW,324,7.7,19.0,64,0.00,,,0.38,WUHU216DAVISVP2,2013-05-03 03:07:00,
2013-05-02 22:37:00,51.3,39.4,30.32,NW,321,11.0,24.2,63,0.00,,,0.38,WUHU216DAVISVP2,2013-05-03 03:37:00,
2013-05-02 23:07:00,51.6,39.6,30.33,NNW,341,7.7,22.0,63,0.00,,,0.38,WUHU216DAVISVP2,2013-05-03 04:07:00,
2013-05-02 23:37:00,51.8,39.0,30.33,NNW,330,8.8,25.3,61,0.00,,,0.38,WUHU216DAVISVP2,2013-05-03 04:37:00,